createdAt,value
2019-04-14T00:01:09.231Z,19.45
2019-04-14T00:02:51.869Z,18.98
2019-04-14T00:04:31.348Z,18.98
2019-04-14T00:06:06.962Z,19.55
2019-04-14T00:07:42.759Z,20.40
2019-04-14T00:09:20.576Z,19.87
2019-04-14T00:10:55.507Z,19.67
2019-04-14T00:12:31.572Z,20.17
2019-04-14T00:14:07.419Z,19.55
2019-04-14T00:15:46.749Z,19.62
2019-04-14T00:17:19.448Z,19.80
2019-04-14T00:18:55.462Z,19.45
2019-04-14T00:20:31.451Z,20.92
2019-04-14T00:22:07.294Z,20.45
2019-04-14T00:23:43.486Z,20.32
2019-04-14T00:25:19.471Z,20.43
2019-04-14T00:26:55.204Z,20.02
2019-04-14T00:28:31.852Z,19.70
2019-04-14T00:30:08.244Z,19.45
2019-04-14T00:31:43.369Z,19.67
2019-04-14T00:33:19.646Z,19.95
2019-04-14T00:35:06.087Z,20.72
2019-04-14T00:37:01.176Z,19.48
2019-04-14T00:38:39.120Z,20.57
2019-04-14T00:40:23.609Z,20.72
2019-04-14T00:42:14.862Z,20.75
2019-04-14T00:43:57.758Z,20.43
2019-04-14T00:45:45.250Z,18.92
2019-04-14T00:47:18.055Z,19.40
2019-04-14T00:48:53.946Z,20.17
2019-04-14T00:50:29.765Z,20.43
2019-04-14T00:52:05.798Z,20.35
2019-04-14T00:53:40.718Z,20.08
2019-04-14T00:55:16.057Z,20.15
2019-04-14T00:56:51.951Z,19.67
2019-04-14T00:58:27.921Z,20.02
2019-04-14T01:00:03.856Z,20.48
2019-04-14T01:01:39.432Z,21.10
2019-04-14T01:03:15.342Z,20.00
2019-04-14T01:04:51.345Z,20.70
2019-04-14T01:06:27.285Z,20.17
2019-04-14T01:08:03.132Z,20.95
2019-04-14T01:09:39.073Z,20.37
2019-04-14T01:11:14.386Z,22.02
2019-04-14T01:12:49.662Z,20.70
2019-04-14T01:14:25.551Z,23.07
2019-04-14T01:16:07.185Z,23.60
2019-04-14T01:17:37.371Z,22.85
2019-04-14T01:19:13.379Z,22.22
2019-04-14T01:20:49.200Z,24.07
2019-04-14T01:22:24.909Z,23.15
2019-04-14T01:24:00.954Z,23.83
2019-04-14T01:25:36.802Z,22.60
2019-04-14T01:27:12.486Z,23.83
2019-04-14T01:28:48.200Z,23.20
2019-04-14T01:30:24.053Z,23.32
2019-04-14T01:31:58.658Z,24.60
2019-04-14T01:33:33.711Z,24.45
2019-04-14T01:35:09.541Z,23.22
2019-04-14T01:36:45.236Z,24.82
2019-04-14T01:38:21.109Z,23.32
2019-04-14T01:39:56.639Z,23.75
2019-04-14T01:41:31.152Z,24.32
2019-04-14T01:43:08.083Z,23.05
2019-04-14T01:44:43.865Z,22.85
2019-04-14T01:46:24.658Z,23.30
2019-04-14T01:47:55.287Z,23.10
2019-04-14T01:49:31.079Z,23.87
2019-04-14T01:51:22.457Z,21.85
2019-04-14T01:53:16.161Z,20.17
2019-04-14T01:55:11.146Z,20.80
2019-04-14T01:57:13.466Z,19.42
2019-04-14T01:58:51.305Z,20.60
2019-04-14T02:00:38.160Z,20.23
2019-04-14T02:02:16.265Z,23.15
2019-04-14T02:03:51.914Z,21.82
2019-04-14T02:05:27.772Z,22.13
2019-04-14T02:07:03.833Z,23.42
2019-04-14T02:08:39.360Z,22.25
2019-04-14T02:10:15.113Z,23.45
2019-04-14T02:11:50.779Z,23.65
2019-04-14T02:13:26.728Z,22.95
2019-04-14T02:15:02.615Z,23.45
2019-04-14T02:16:41.941Z,21.90
2019-04-14T02:18:14.245Z,23.62
2019-04-14T02:19:50.198Z,23.92
2019-04-14T02:21:25.863Z,24.67
2019-04-14T02:23:01.674Z,24.35
2019-04-14T02:24:37.472Z,23.05
2019-04-14T02:26:13.218Z,22.93
2019-04-14T02:27:47.797Z,23.20
2019-04-14T02:29:23.242Z,23.52
2019-04-14T02:31:10.359Z,22.85
2019-04-14T02:34:39.182Z,22.58
2019-04-14T02:37:54.467Z,21.62
2019-04-14T02:41:03.048Z,21.17
2019-04-14T02:44:34.268Z,20.60
2019-04-14T02:45:55.826Z,20.30
2019-04-14T02:47:48.026Z,20.72
2019-04-14T02:49:08.187Z,20.10
2019-04-14T02:52:19.733Z,20.27
2019-04-14T02:54:07.218Z,20.05
2019-04-14T02:55:23.500Z,19.92
2019-04-14T02:58:47.952Z,19.45
2019-04-14T03:00:31.763Z,19.45
2019-04-14T03:02:09.694Z,15.80
2019-04-14T03:05:05.589Z,13.10
2019-04-14T03:06:41.173Z,11.97
2019-04-14T03:08:16.761Z,11.95
2019-04-14T03:10:05.244Z,11.83
2019-04-14T03:13:21.170Z,12.43
2019-04-14T03:14:50.026Z,12.33
2019-04-14T03:16:23.438Z,12.68
2019-04-14T03:22:04.872Z,11.53
2019-04-14T03:23:44.194Z,11.88
2019-04-14T03:25:27.732Z,11.75
2019-04-14T03:27:25.004Z,11.40
2019-04-14T03:29:08.839Z,11.03
2019-04-14T03:32:39.514Z,10.63
2019-04-14T03:38:52.943Z,11.48
2019-04-14T03:40:28.581Z,11.65
2019-04-14T03:42:00.490Z,10.03
2019-04-14T03:44:07.176Z,10.70
2019-04-14T03:45:16.033Z,11.60
2019-04-14T03:46:55.407Z,11.30
2019-04-14T03:51:48.602Z,10.93
2019-04-14T03:53:22.163Z,11.48
2019-04-14T03:54:44.132Z,10.72
2019-04-14T03:56:51.227Z,11.30
2019-04-14T03:58:27.131Z,10.58
2019-04-14T04:00:03.208Z,9.68
2019-04-14T04:01:39.135Z,9.23
2019-04-14T04:03:15.174Z,10.50
2019-04-14T04:04:51.199Z,10.15
2019-04-14T04:06:27.086Z,10.18
2019-04-14T04:08:02.786Z,10.30
2019-04-14T04:10:01.114Z,9.65
2019-04-14T04:11:36.640Z,9.78
2019-04-14T04:13:12.591Z,10.25
2019-04-14T04:14:48.465Z,10.03
2019-04-14T04:16:46.207Z,10.10
2019-04-14T04:18:24.180Z,10.60
2019-04-14T04:20:11.030Z,10.88
2019-04-14T04:22:17.196Z,10.10
2019-04-14T04:23:56.134Z,9.80
2019-04-14T04:25:39.995Z,9.83
2019-04-14T04:27:28.736Z,8.78
2019-04-14T04:29:20.368Z,9.65
2019-04-14T04:31:00.321Z,10.05
2019-04-14T04:32:53.697Z,9.20
2019-04-14T04:34:34.125Z,9.00
2019-04-14T04:36:18.175Z,9.03
2019-04-14T04:37:56.754Z,9.93
2019-04-14T04:39:38.584Z,8.90
2019-04-14T04:41:14.615Z,9.35
2019-04-14T04:42:50.512Z,9.53
2019-04-14T04:44:25.297Z,8.80
2019-04-14T04:46:00.640Z,9.63
2019-04-14T04:47:36.284Z,9.43
2019-04-14T04:49:16.502Z,9.35
2019-04-14T04:50:47.780Z,10.05
2019-04-14T04:52:23.650Z,9.65
2019-04-14T04:53:59.462Z,9.80
2019-04-14T04:55:35.143Z,8.80
2019-04-14T04:57:11.283Z,9.35
2019-04-14T04:58:46.497Z,9.30
2019-04-14T05:00:22.194Z,9.83
2019-04-14T05:01:58.052Z,9.88
2019-04-14T05:03:33.958Z,10.10
2019-04-14T05:06:07.345Z,10.35
2019-04-14T05:07:42.636Z,10.58
2019-04-14T05:09:23.127Z,10.82
2019-04-14T05:11:04.023Z,11.20
2019-04-14T05:12:43.585Z,9.73
2019-04-14T05:14:26.218Z,9.95
2019-04-14T05:16:02.359Z,10.35
2019-04-14T05:17:37.308Z,11.15
2019-04-14T05:19:21.857Z,9.98
2019-04-14T05:20:48.939Z,10.38
2019-04-14T05:22:24.728Z,9.25
2019-04-14T05:24:00.563Z,10.05
2019-04-14T05:25:36.495Z,9.35
2019-04-14T05:27:12.409Z,9.70
2019-04-14T05:28:48.358Z,8.98
2019-04-14T05:30:24.312Z,8.50
2019-04-14T05:32:00.126Z,9.20
2019-04-14T05:33:36.023Z,8.70
2019-04-14T05:35:11.998Z,8.70
2019-04-14T05:36:47.829Z,8.63
2019-04-14T05:38:23.621Z,8.50
2019-04-14T05:39:59.386Z,9.23
2019-04-14T05:41:35.413Z,8.35
2019-04-14T05:43:11.328Z,8.85
2019-04-14T05:44:47.131Z,8.18
2019-04-14T05:46:22.983Z,8.00
2019-04-14T05:47:58.834Z,7.22
2019-04-14T05:49:39.103Z,8.20
2019-04-14T05:51:11.038Z,8.70
2019-04-14T05:52:47.091Z,7.62
2019-04-14T05:54:23.062Z,8.28
2019-04-14T05:55:59.245Z,8.18
2019-04-14T05:57:35.182Z,7.75
2019-04-14T05:59:11.265Z,7.90
2019-04-14T06:00:47.462Z,8.15
2019-04-14T06:02:22.333Z,8.18
2019-04-14T06:03:58.162Z,9.03
2019-04-14T06:05:34.033Z,9.05
2019-04-14T06:07:09.391Z,9.98
2019-04-14T06:08:44.521Z,9.60
2019-04-14T06:10:19.390Z,9.40
2019-04-14T06:11:54.156Z,9.48
2019-04-14T06:13:29.139Z,8.43
2019-04-14T06:15:04.077Z,9.25
2019-04-14T06:16:39.298Z,9.28
2019-04-14T06:18:14.299Z,9.63
2019-04-14T06:19:49.528Z,9.15
2019-04-14T06:21:24.534Z,8.95
2019-04-14T06:22:59.395Z,9.03
2019-04-14T06:24:34.146Z,9.03
2019-04-14T06:26:09.178Z,10.08
2019-04-14T06:27:43.933Z,9.68
2019-04-14T06:29:18.722Z,9.00
2019-04-14T06:31:18.636Z,9.40
2019-04-14T06:32:54.538Z,9.38
2019-04-14T06:34:42.366Z,9.43
2019-04-14T06:36:29.433Z,8.88
2019-04-14T06:38:06.662Z,8.98
2019-04-14T06:39:44.510Z,11.10
2019-04-14T06:41:20.284Z,11.40
2019-04-14T06:42:55.319Z,11.97
2019-04-14T06:44:30.093Z,12.03
2019-04-14T06:46:04.938Z,11.40
2019-04-14T06:47:39.734Z,10.93
2019-04-14T06:49:14.506Z,10.80
2019-04-14T06:50:49.617Z,10.10
2019-04-14T06:52:24.405Z,9.50
2019-04-14T06:53:59.205Z,9.73
2019-04-14T06:55:34.257Z,8.85
2019-04-14T06:57:09.002Z,8.63
2019-04-14T06:58:43.784Z,10.85
2019-04-14T07:00:18.848Z,9.73
2019-04-14T07:01:53.877Z,9.10
2019-04-14T07:03:28.641Z,9.00
2019-04-14T07:05:03.757Z,9.25
2019-04-14T07:06:38.796Z,9.15
2019-04-14T07:08:13.572Z,9.08
2019-04-14T07:09:48.826Z,8.33
2019-04-14T07:11:23.480Z,8.95
2019-04-14T07:13:01.806Z,8.68
2019-04-14T07:14:36.184Z,8.45
2019-04-14T07:16:10.562Z,8.53
2019-04-14T07:17:45.171Z,8.63
2019-04-14T07:19:19.623Z,8.60
2019-04-14T07:20:54.229Z,9.05
2019-04-14T07:22:28.660Z,9.48
2019-04-14T07:24:03.337Z,9.10
2019-04-14T07:25:38.014Z,9.23
2019-04-14T07:27:12.477Z,9.63
2019-04-14T07:28:56.705Z,9.85
2019-04-14T07:30:42.317Z,9.35
2019-04-14T07:32:34.688Z,9.28
2019-04-14T07:34:43.565Z,9.40
2019-04-14T07:36:35.648Z,8.85
2019-04-14T07:38:18.385Z,8.93
2019-04-14T07:40:06.989Z,9.35
2019-04-14T07:41:50.686Z,8.80
2019-04-14T07:43:34.530Z,9.60
2019-04-14T07:45:14.259Z,9.08
2019-04-14T07:47:17.009Z,8.90
2019-04-14T07:49:01.391Z,9.55
2019-04-14T07:50:46.325Z,9.13
2019-04-14T07:52:43.144Z,10.10
2019-04-14T07:54:36.957Z,10.35
2019-04-14T07:56:24.303Z,10.82
2019-04-14T07:58:18.341Z,10.43
2019-04-14T08:00:18.272Z,9.93
2019-04-14T08:02:00.693Z,10.05
2019-04-14T08:03:53.389Z,10.35
2019-04-14T08:05:31.397Z,10.18
2019-04-14T08:07:06.553Z,11.08
2019-04-14T08:08:41.512Z,10.98
2019-04-14T08:10:17.350Z,10.55
2019-04-14T08:11:52.149Z,10.90
2019-04-14T08:13:26.980Z,11.63
2019-04-14T08:15:01.758Z,10.75
2019-04-14T08:16:36.990Z,11.53
2019-04-14T08:18:11.994Z,11.85
2019-04-14T08:19:46.779Z,11.90
2019-04-14T08:21:22.129Z,11.65
2019-04-14T08:22:58.066Z,11.83
2019-04-14T08:24:33.137Z,11.43
2019-04-14T08:26:07.919Z,11.65
2019-04-14T08:27:42.938Z,11.33
2019-04-14T08:29:17.817Z,11.53
2019-04-14T08:30:52.627Z,10.95
2019-04-14T08:32:27.401Z,10.32
2019-04-14T08:34:02.194Z,11.20
2019-04-14T08:35:36.971Z,10.85
2019-04-14T08:37:11.774Z,10.70
2019-04-14T08:38:46.547Z,10.20
2019-04-14T08:40:21.806Z,11.15
2019-04-14T08:42:22.369Z,10.30
2019-04-14T08:44:20.001Z,10.65
2019-04-14T08:46:13.016Z,11.03
2019-04-14T08:48:13.988Z,11.60
2019-04-14T08:49:55.185Z,11.35
2019-04-14T08:51:36.822Z,10.85
2019-04-14T08:53:20.645Z,11.20
2019-04-14T08:55:01.828Z,10.78
2019-04-14T08:56:49.761Z,11.75
2019-04-14T08:58:47.145Z,11.95
2019-04-14T09:00:31.029Z,13.35
2019-04-14T09:02:16.723Z,12.82
2019-04-14T09:04:04.696Z,13.18
2019-04-14T09:05:44.391Z,12.65
2019-04-14T09:07:41.215Z,13.15
2019-04-14T09:09:25.456Z,13.00
2019-04-14T09:11:01.880Z,13.90
2019-04-14T09:12:39.015Z,12.78
2019-04-14T09:14:14.024Z,13.65
2019-04-14T09:15:48.828Z,13.48
2019-04-14T09:17:24.217Z,13.98
2019-04-14T09:19:07.508Z,14.65
2019-04-14T09:20:35.731Z,14.10
2019-04-14T09:22:10.533Z,13.35
2019-04-14T09:23:45.300Z,13.90
2019-04-14T09:25:20.323Z,14.40
2019-04-14T09:26:55.358Z,14.70
2019-04-14T09:28:30.158Z,14.45
2019-04-14T09:30:05.847Z,13.45
2019-04-14T09:31:40.845Z,14.63
2019-04-14T09:33:15.607Z,13.80
2019-04-14T09:34:50.705Z,14.45
2019-04-14T09:36:25.476Z,14.15
2019-04-14T09:38:00.732Z,14.23
2019-04-14T09:39:35.765Z,14.20
2019-04-14T09:41:11.031Z,13.55
2019-04-14T09:42:45.818Z,14.50
2019-04-14T09:44:20.857Z,14.83
2019-04-14T09:45:55.902Z,15.15
2019-04-14T09:47:31.131Z,13.85
2019-04-14T09:49:06.233Z,13.85
2019-04-14T09:50:41.273Z,14.05
2019-04-14T09:52:16.069Z,14.30
2019-04-14T09:53:50.958Z,14.55
2019-04-14T09:55:25.746Z,16.00
2019-04-14T09:57:00.519Z,13.93
2019-04-14T09:58:35.363Z,14.73
2019-04-14T10:00:13.589Z,14.53
2019-04-14T10:01:49.035Z,14.95
2019-04-14T10:03:25.257Z,15.05
2019-04-14T10:05:00.264Z,15.28
2019-04-14T10:06:35.072Z,14.43
2019-04-14T10:08:09.932Z,14.87
2019-04-14T10:09:45.033Z,15.35
2019-04-14T10:11:20.089Z,14.85
2019-04-14T10:12:54.976Z,15.53
2019-04-14T10:14:29.780Z,14.63
2019-04-14T10:16:04.560Z,15.23
2019-04-14T10:17:39.581Z,15.23
2019-04-14T10:19:14.465Z,14.85
2019-04-14T10:20:49.242Z,15.68
2019-04-14T10:22:33.385Z,16.25
2019-04-14T10:24:00.873Z,17.15
2019-04-14T10:25:36.215Z,19.52
2019-04-14T10:27:11.514Z,18.45
2019-04-14T10:28:46.329Z,17.57
2019-04-14T10:30:21.452Z,16.67
2019-04-14T10:31:57.028Z,15.25
2019-04-14T10:33:31.825Z,15.13
2019-04-14T10:35:06.804Z,14.78
2019-04-14T10:36:41.620Z,16.05
2019-04-14T10:38:16.450Z,16.17
2019-04-14T10:39:51.238Z,15.40
2019-04-14T10:41:26.050Z,17.12
2019-04-14T10:43:01.085Z,15.90
2019-04-14T10:44:36.124Z,15.60
2019-04-14T10:46:11.306Z,15.43
2019-04-14T10:47:46.516Z,16.95
2019-04-14T10:49:21.362Z,15.98
2019-04-14T10:50:56.228Z,15.35
2019-04-14T10:52:31.007Z,15.53
2019-04-14T10:54:06.120Z,16.27
2019-04-14T10:55:41.137Z,15.80
2019-04-14T10:57:15.943Z,16.45
2019-04-14T10:58:50.961Z,15.05
2019-04-14T11:00:25.852Z,15.75
2019-04-14T11:02:00.884Z,16.65
2019-04-14T11:03:35.762Z,15.23
2019-04-14T11:05:11.234Z,14.78
2019-04-14T11:06:56.902Z,15.40
2019-04-14T11:08:31.682Z,16.02
2019-04-14T11:10:08.050Z,16.30
2019-04-14T11:11:43.110Z,15.72
2019-04-14T11:13:18.144Z,16.73
2019-04-14T11:14:53.647Z,16.37
2019-04-14T11:16:28.706Z,17.42
2019-04-14T11:18:03.771Z,16.10
2019-04-14T11:19:38.569Z,15.50
2019-04-14T11:21:13.618Z,16.67
2019-04-14T11:22:48.733Z,16.40
2019-04-14T11:24:24.181Z,17.23
2019-04-14T11:25:59.081Z,16.87
2019-04-14T11:27:33.893Z,17.65
2019-04-14T11:29:08.725Z,18.17
2019-04-14T11:30:43.501Z,16.57
2019-04-14T11:32:35.982Z,16.20
2019-04-14T11:34:11.144Z,16.48
2019-04-14T11:35:53.409Z,17.20
2019-04-14T11:37:46.866Z,15.88
2019-04-14T11:39:21.865Z,16.30
2019-04-14T11:40:58.548Z,16.07
2019-04-14T11:42:33.075Z,16.97
2019-04-14T11:44:08.283Z,15.63
2019-04-14T11:45:42.755Z,15.72
2019-04-14T11:47:17.573Z,15.93
2019-04-14T11:48:52.415Z,15.88
2019-04-14T11:50:26.880Z,16.00
2019-04-14T11:52:01.305Z,15.68
2019-04-14T11:53:36.235Z,16.57
2019-04-14T11:55:11.432Z,16.42
2019-04-14T11:56:46.355Z,16.93
2019-04-14T11:58:20.869Z,16.07
2019-04-14T12:00:04.679Z,17.73
2019-04-14T12:02:00.425Z,14.63
2019-04-14T12:03:59.057Z,15.40
2019-04-14T12:05:58.636Z,15.88
2019-04-14T12:07:40.363Z,15.65
2019-04-14T12:09:18.434Z,15.65
2019-04-14T12:10:53.567Z,17.60
2019-04-14T12:12:28.635Z,18.57
2019-04-14T12:14:03.450Z,17.62
2019-04-14T12:15:37.866Z,18.15
2019-04-14T12:17:12.255Z,18.15
2019-04-14T12:18:46.626Z,17.90
2019-04-14T12:20:21.013Z,16.97
2019-04-14T12:22:07.447Z,18.70
2019-04-14T12:23:31.789Z,18.27
2019-04-14T12:25:07.390Z,18.48
2019-04-14T12:26:42.152Z,20.37
2019-04-14T12:28:17.342Z,20.12
2019-04-14T12:29:52.228Z,18.98
2019-04-14T12:31:26.889Z,19.85
2019-04-14T12:33:01.257Z,18.67
2019-04-14T12:34:35.632Z,19.65
2019-04-14T12:36:13.016Z,18.57
2019-04-14T12:37:47.425Z,18.62
2019-04-14T12:39:24.262Z,19.07
2019-04-14T12:41:02.033Z,19.00
2019-04-14T12:42:55.380Z,18.87
2019-04-14T12:44:43.282Z,17.95
2019-04-14T12:46:43.210Z,18.50
2019-04-14T12:48:46.649Z,18.10
2019-04-14T12:50:34.636Z,19.67
2019-04-14T12:52:21.276Z,19.73
2019-04-14T12:53:52.798Z,20.75
2019-04-14T12:55:27.653Z,19.02
2019-04-14T12:57:02.441Z,18.35
2019-04-14T12:58:52.864Z,19.62
2019-04-14T13:00:40.471Z,19.50
2019-04-14T13:02:23.592Z,19.65
2019-04-14T13:03:58.374Z,20.27
2019-04-14T13:05:33.283Z,20.87
2019-04-14T13:07:07.749Z,20.43
2019-04-14T13:08:42.195Z,20.60
2019-04-14T13:10:17.700Z,20.50
2019-04-14T13:11:52.225Z,20.53
2019-04-14T13:13:26.585Z,19.17
2019-04-14T13:15:02.830Z,19.43
2019-04-14T13:16:37.448Z,20.53
2019-04-14T13:18:11.825Z,22.00
2019-04-14T13:19:46.327Z,20.27
2019-04-14T13:21:21.273Z,22.40
2019-04-14T13:22:55.672Z,22.30
2019-04-14T13:24:30.095Z,22.53
2019-04-14T13:26:05.314Z,21.67
2019-04-14T13:27:39.709Z,23.93
2019-04-14T13:29:14.140Z,24.00
2019-04-14T13:30:50.030Z,22.50
2019-04-14T13:32:35.341Z,21.67
2019-04-14T13:34:00.905Z,22.70
2019-04-14T13:35:35.357Z,22.00
2019-04-14T13:37:09.982Z,22.23
2019-04-14T13:38:44.416Z,23.60
2019-04-14T13:40:19.323Z,23.63
2019-04-14T13:41:53.682Z,24.73
2019-04-14T13:43:28.053Z,26.77
2019-04-14T13:45:02.450Z,25.23
2019-04-14T13:46:36.917Z,26.20
2019-04-14T13:48:11.309Z,26.07
2019-04-14T13:49:45.684Z,26.73
2019-04-14T13:51:20.314Z,27.77
2019-04-14T13:52:54.748Z,28.87
2019-04-14T13:54:29.129Z,26.87
2019-04-14T13:56:03.481Z,26.43
2019-04-14T13:57:37.869Z,25.53
2019-04-14T13:59:12.336Z,27.37
2019-04-14T14:00:46.697Z,25.60
2019-04-14T14:02:21.074Z,25.27
2019-04-14T14:03:55.756Z,23.87
2019-04-14T14:05:30.397Z,24.63
2019-04-14T14:07:05.493Z,24.40
2019-04-14T14:08:39.858Z,25.87
2019-04-14T14:10:14.771Z,27.03
2019-04-14T14:12:14.125Z,27.47
2019-04-14T14:13:54.108Z,26.23
2019-04-14T14:15:59.743Z,26.00
2019-04-14T14:17:59.264Z,26.07
2019-04-14T14:19:44.778Z,26.27
2019-04-14T14:21:44.273Z,27.83
2019-04-14T14:23:27.747Z,26.20
2019-04-14T14:25:12.100Z,26.53
2019-04-14T14:26:47.750Z,26.10
2019-04-14T14:28:22.258Z,26.80
2019-04-14T14:29:56.689Z,25.10
2019-04-14T14:31:31.313Z,26.33
2019-04-14T14:33:05.830Z,26.93
2019-04-14T14:34:40.202Z,26.50
2019-04-14T14:36:14.573Z,26.63
2019-04-14T14:37:48.925Z,26.30
2019-04-14T14:39:23.320Z,26.80
2019-04-14T14:40:59.566Z,26.03
2019-04-14T14:42:33.912Z,26.47
2019-04-14T14:44:08.277Z,27.37
2019-04-14T14:45:52.409Z,28.13
2019-04-14T14:47:29.210Z,27.73
2019-04-14T14:49:10.259Z,28.70
2019-04-14T14:50:52.253Z,29.03
2019-04-14T14:52:26.658Z,29.17
2019-04-14T14:54:01.541Z,29.23
2019-04-14T14:55:35.896Z,31.10
2019-04-14T14:57:10.582Z,31.40
2019-04-14T14:58:45.481Z,32.07
2019-04-14T15:00:29.752Z,31.57
2019-04-14T15:02:04.236Z,32.43
2019-04-14T15:03:39.090Z,33.33
2019-04-14T15:05:13.601Z,34.67
2019-04-14T15:06:47.979Z,32.40
2019-04-14T15:08:22.420Z,31.90
2019-04-14T15:09:56.925Z,33.97
2019-04-14T15:11:31.326Z,34.07
2019-04-14T15:13:06.238Z,32.60
2019-04-14T15:14:41.058Z,33.27
2019-04-14T15:16:15.423Z,32.07
2019-04-14T15:17:49.957Z,33.20
2019-04-14T15:19:24.410Z,34.00
2019-04-14T15:20:59.125Z,34.40
2019-04-14T15:22:33.493Z,34.30
2019-04-14T15:24:08.136Z,33.73
2019-04-14T15:25:42.574Z,33.33
2019-04-14T15:27:16.934Z,34.03
2019-04-14T15:28:51.421Z,33.77
2019-04-14T15:30:25.812Z,33.73
2019-04-14T15:32:00.632Z,33.77
2019-04-14T15:33:35.011Z,34.90
2019-04-14T15:35:11.043Z,33.63
2019-04-14T15:36:45.415Z,33.13
2019-04-14T15:38:20.157Z,33.17
2019-04-14T15:39:54.575Z,33.63
2019-04-14T15:41:28.960Z,32.57
2019-04-14T15:43:03.321Z,34.47
2019-04-14T15:44:38.273Z,32.83
2019-04-14T15:46:12.911Z,32.97
2019-04-14T15:47:47.629Z,32.87
2019-04-14T15:49:22.328Z,35.33
2019-04-14T15:50:56.682Z,34.07
2019-04-14T15:52:31.113Z,32.20
2019-04-14T15:54:06.009Z,33.40
2019-04-14T15:55:40.441Z,33.33
2019-04-14T15:57:33.897Z,33.63
2019-04-14T15:59:15.092Z,33.27
2019-04-14T16:01:23.965Z,35.03
2019-04-14T16:03:16.215Z,33.33
2019-04-14T16:04:56.510Z,33.03
2019-04-14T16:06:45.300Z,36.17
2019-04-14T16:08:32.339Z,36.00
2019-04-14T16:10:15.667Z,35.60
2019-04-14T16:12:06.436Z,36.80
2019-04-14T16:13:45.865Z,35.87
2019-04-14T16:15:42.531Z,35.93
2019-04-14T16:17:39.135Z,36.77
2019-04-14T16:19:21.230Z,36.27
2019-04-14T16:20:55.629Z,37.03
2019-04-14T16:22:29.990Z,36.27
2019-04-14T16:24:04.453Z,37.33
2019-04-14T16:25:47.653Z,36.63
2019-04-14T16:27:44.517Z,35.87
2019-04-14T16:29:22.468Z,36.47
2019-04-14T16:31:04.626Z,35.53
2019-04-14T16:33:03.121Z,34.47
2019-04-14T16:34:47.351Z,34.33
2019-04-14T16:36:21.702Z,36.97
2019-04-14T16:37:56.355Z,37.30
2019-04-14T16:39:30.757Z,35.57
2019-04-14T16:41:05.121Z,36.43
2019-04-14T16:42:39.474Z,34.83
2019-04-14T16:44:14.007Z,35.13
2019-04-14T16:45:48.746Z,37.80
2019-04-14T16:47:23.466Z,35.33
2019-04-14T16:48:57.822Z,36.37
2019-04-14T16:50:32.193Z,35.03
2019-04-14T16:52:29.429Z,35.87
2019-04-14T16:54:10.982Z,35.70
2019-04-14T16:55:55.550Z,34.97
2019-04-14T16:57:48.055Z,36.30
2019-04-14T16:59:22.781Z,37.20
2019-04-14T17:01:03.383Z,35.80
2019-04-14T17:02:37.829Z,37.57
2019-04-14T17:04:12.526Z,37.33
2019-04-14T17:05:47.226Z,37.37
2019-04-14T17:07:21.589Z,37.07
2019-04-14T17:08:56.022Z,36.83
2019-04-14T17:10:30.431Z,37.07
2019-04-14T17:12:05.207Z,43.60
2019-04-14T17:13:42.141Z,41.87
2019-04-14T17:15:41.902Z,40.43
2019-04-14T17:17:35.357Z,38.40
2019-04-14T17:19:14.025Z,37.03
2019-04-14T17:20:58.234Z,37.60
2019-04-14T17:22:45.923Z,36.80
2019-04-14T17:24:51.766Z,35.83
2019-04-14T17:26:41.548Z,37.10
2019-04-14T17:28:23.451Z,36.67
2019-04-14T17:30:14.372Z,35.07
2019-04-14T17:32:07.189Z,36.47
2019-04-14T17:33:57.681Z,37.27
2019-04-14T17:35:57.768Z,35.97
2019-04-14T17:37:44.316Z,36.40
2019-04-14T17:39:33.482Z,33.90
2019-04-14T17:41:15.666Z,34.13
2019-04-14T17:42:55.703Z,34.30
2019-04-14T17:44:52.064Z,33.97
2019-04-14T17:46:37.790Z,34.30
2019-04-14T17:48:31.243Z,35.33
2019-04-14T17:50:40.134Z,34.03
2019-04-14T17:52:22.759Z,33.30
2019-04-14T17:54:29.773Z,32.20
2019-04-14T17:56:07.163Z,33.47
2019-04-14T17:57:59.900Z,34.87
2019-04-14T17:59:40.478Z,35.43
2019-04-14T18:01:33.151Z,33.17
2019-04-14T18:03:22.441Z,35.80
2019-04-14T18:05:04.692Z,32.37
2019-04-14T18:06:47.990Z,35.77
2019-04-14T18:08:40.518Z,33.80
2019-04-14T18:10:19.833Z,35.25
2019-04-14T18:12:06.801Z,34.18
2019-04-14T18:13:50.024Z,35.47
2019-04-14T18:15:31.436Z,36.60
2019-04-14T18:17:20.127Z,39.03
2019-04-14T18:19:18.574Z,35.10
2019-04-14T18:20:56.781Z,38.28
2019-04-14T18:22:31.505Z,40.78
2019-04-14T18:24:05.869Z,38.63
2019-04-14T18:25:40.509Z,39.98
2019-04-14T18:27:15.243Z,39.55
2019-04-14T18:29:12.272Z,38.88
2019-04-14T18:31:01.824Z,40.40
2019-04-14T18:32:40.837Z,41.63
2019-04-14T18:34:20.500Z,44.70
2019-04-14T18:35:59.492Z,44.05
2019-04-14T18:37:40.758Z,42.03
2019-04-14T18:39:34.829Z,43.60
2019-04-14T18:41:15.877Z,40.58
2019-04-14T18:43:10.536Z,41.50
2019-04-14T18:44:53.242Z,37.35
2019-04-14T18:46:45.417Z,39.23
2019-04-14T18:48:27.915Z,40.23
2019-04-14T18:50:13.897Z,39.65
2019-04-14T18:51:57.166Z,38.33
2019-04-14T18:53:51.212Z,37.45
2019-04-14T18:55:33.081Z,36.20
2019-04-14T18:57:33.330Z,35.45
2019-04-14T18:59:27.870Z,35.58
2019-04-14T19:01:09.366Z,33.95
2019-04-14T19:02:44.153Z,35.80
2019-04-14T19:04:19.175Z,35.43
2019-04-14T19:05:54.250Z,37.13
2019-04-14T19:07:29.345Z,36.48
2019-04-14T19:09:06.247Z,33.98
2019-04-14T19:10:43.338Z,34.60
2019-04-14T19:12:37.474Z,34.55
2019-04-14T19:14:15.547Z,33.50
2019-04-14T19:15:56.075Z,31.65
2019-04-14T19:17:44.757Z,34.03
2019-04-14T19:19:20.442Z,35.58
2019-04-14T19:21:01.618Z,33.45
2019-04-14T19:22:36.620Z,36.90
2019-04-14T19:24:11.658Z,35.60
2019-04-14T19:25:46.429Z,34.92
2019-04-14T19:27:21.242Z,35.70
2019-04-14T19:28:56.029Z,36.90
2019-04-14T19:30:31.045Z,35.80
2019-04-14T19:32:06.226Z,35.80
2019-04-14T19:33:41.043Z,35.05
2019-04-14T19:35:15.815Z,36.77
2019-04-14T19:36:50.587Z,36.70
2019-04-14T19:38:25.613Z,38.17
2019-04-14T19:40:00.755Z,37.60
2019-04-14T19:41:35.540Z,44.03
2019-04-14T19:43:22.940Z,40.95
2019-04-14T19:44:46.906Z,40.65
2019-04-14T19:46:21.790Z,41.53
2019-04-14T19:47:56.559Z,40.00
2019-04-14T19:49:31.831Z,39.92
2019-04-14T19:51:06.687Z,39.67
2019-04-14T19:52:41.988Z,39.13
2019-04-14T19:54:16.766Z,36.65
2019-04-14T19:55:52.034Z,36.85
2019-04-14T19:57:27.277Z,40.30
2019-04-14T19:59:02.351Z,39.25
2019-04-14T20:00:37.408Z,39.05
2019-04-14T20:02:12.225Z,37.60
2019-04-14T20:03:47.892Z,40.92
2019-04-14T20:05:22.911Z,40.33
2019-04-14T20:06:58.002Z,40.63
2019-04-14T20:08:32.782Z,37.60
2019-04-14T20:10:09.404Z,37.58
2019-04-14T20:11:44.217Z,38.75
2019-04-14T20:13:18.580Z,38.92
2019-04-14T20:14:53.017Z,36.28
2019-04-14T20:16:47.636Z,38.30
2019-04-14T20:18:28.444Z,39.05
2019-04-14T20:20:12.109Z,39.10
2019-04-14T20:22:05.984Z,39.18
2019-04-14T20:23:45.019Z,39.18
2019-04-14T20:25:34.021Z,39.67
2019-04-14T20:27:12.707Z,38.90
2019-04-14T20:28:53.888Z,38.75
2019-04-14T20:30:53.852Z,38.65
2019-04-14T20:32:31.469Z,37.55
2019-04-14T20:34:06.562Z,38.67
2019-04-14T20:35:41.337Z,42.98
2019-04-14T20:37:16.125Z,40.98
2019-04-14T20:38:51.170Z,39.95
2019-04-14T20:40:25.959Z,39.45
2019-04-14T20:42:01.273Z,38.13
2019-04-14T20:43:36.415Z,40.15
2019-04-14T20:45:13.755Z,37.83
2019-04-14T20:46:50.347Z,36.80
2019-04-14T20:48:25.152Z,35.92
2019-04-14T20:49:59.925Z,37.95
2019-04-14T20:51:34.983Z,35.90
2019-04-14T20:53:09.761Z,39.13
2019-04-14T20:54:44.812Z,39.18
2019-04-14T20:56:19.823Z,35.88
2019-04-14T20:57:54.679Z,36.13
2019-04-14T20:59:29.707Z,36.73
2019-04-14T21:01:06.393Z,38.15
2019-04-14T21:03:02.994Z,37.80
2019-04-14T21:04:57.828Z,41.25
2019-04-14T21:06:42.770Z,40.15
2019-04-14T21:08:28.769Z,40.23
2019-04-14T21:10:11.444Z,36.35
2019-04-14T21:11:59.937Z,37.85
2019-04-14T21:13:43.041Z,40.35
2019-04-14T21:15:25.160Z,40.73
2019-04-14T21:17:19.287Z,37.95
2019-04-14T21:18:57.691Z,42.48
2019-04-14T21:20:38.953Z,40.15
2019-04-14T21:22:19.778Z,42.17
2019-04-14T21:24:09.182Z,42.78
2019-04-14T21:26:02.635Z,44.98
2019-04-14T21:27:55.208Z,40.52
2019-04-14T21:29:38.401Z,40.00
2019-04-14T21:31:16.421Z,41.68
2019-04-14T21:33:00.881Z,41.83
2019-04-14T21:34:46.282Z,41.10
2019-04-14T21:36:25.284Z,43.55
2019-04-14T21:38:04.397Z,40.17
2019-04-14T21:41:37.659Z,40.78
2019-04-14T21:43:12.590Z,40.67
2019-04-14T21:44:47.934Z,40.30
2019-04-14T21:46:22.441Z,38.45
2019-04-14T21:47:56.900Z,38.50
2019-04-14T21:49:31.320Z,41.98
2019-04-14T21:51:06.201Z,41.75